Time;durP1;ratioP1;P1;durP2;ratioP2;P2;SDS_P1;SDS_P2;PMS_P1;PMS_P2;Temp;Humidity;BMP_temperature;BMP_pressure;BME280_temperature;BME280_humidity;BME280_pressure;Samples;Min_cycle;Max_cycle;Signal;HPM_P1;HPM_P2
2022/04/18 00:00:11;;;;;;;25.75;23.05;;;;;;;1.45;100.00;99398.56;2065420;28;20221;-67
2022/04/18 00:01:11;;;;;;;31.70;24.83;;;;;;;1.42;100.00;99399.00;2065698;28;20679;-67
2022/04/18 00:02:13;;;;;;;34.43;25.33;;;;;;;1.39;100.00;99402.06;2073632;28;20591;-67
2022/04/18 00:03:16;;;;;;;31.75;22.90;;;;;;;1.41;100.00;99400.03;2066184;28;20356;-67
2022/04/18 00:04:18;;;;;;;26.63;22.13;;;;;;;1.37;100.00;99396.25;2065373;28;20739;-67
2022/04/18 00:05:22;;;;;;;24.30;21.77;;;;;;;1.33;100.00;99397.75;2057086;28;20617;-67
2022/04/18 00:06:23;;;;;;;27.27;22.30;;;;;;;1.26;100.00;99400.47;2065072;28;20731;-68
2022/04/18 00:07:25;;;;;;;27.37;22.10;;;;;;;1.22;100.00;99401.97;2065344;28;20634;-68
2022/04/18 00:08:25;;;;;;;28.00;23.33;;;;;;;1.15;100.00;99398.66;2057367;28;20209;-67
2022/04/18 00:09:29;;;;;;;27.20;23.07;;;;;;;1.10;100.00;99394.06;2057121;28;20300;-68
2022/04/18 00:10:31;;;;;;;27.08;23.55;;;;;;;1.05;100.00;99399.19;2065353;28;20607;-67
2022/04/18 00:11:34;;;;;;;28.95;23.83;;;;;;;0.99;100.00;99396.66;2066045;28;20197;-67
2022/04/18 00:12:40;;;;;;;29.08;23.58;;;;;;;0.93;100.00;99397.56;2066204;28;20193;-67
2022/04/18 00:13:41;;;;;;;31.45;24.15;;;;;;;0.88;100.00;99398.25;2066338;28;20620;-67
2022/04/18 00:14:44;;;;;;;28.57;23.90;;;;;;;0.82;100.00;99399.13;2065932;28;20624;-67
2022/04/18 00:15:44;;;;;;;32.13;25.50;;;;;;;0.79;100.00;99396.97;2065393;28;20237;-67
2022/04/18 00:16:46;;;;;;;30.67;24.43;;;;;;;0.74;100.00;99402.06;2065467;28;20189;-67
2022/04/18 00:17:48;;;;;;;37.13;26.67;;;;;;;0.71;100.00;99399.91;2064930;28;20707;-67
2022/04/18 00:18:50;;;;;;;30.88;25.48;;;;;;;0.66;100.00;99391.88;2065603;28;20193;-67
2022/04/18 00:19:51;;;;;;;37.90;28.90;;;;;;;0.65;100.00;99391.06;2065949;28;20200;-67
2022/04/18 00:20:52;;;;;;;43.47;28.60;;;;;;;0.65;100.00;99388.44;2065907;28;20252;-68
2022/04/18 00:21:53;;;;;;;46.28;28.75;;;;;;;0.65;100.00;99385.03;2064797;28;20230;-67
2022/04/18 00:22:54;;;;;;;40.40;28.57;;;;;;;0.65;100.00;99387.66;2065537;28;20213;-67
2022/04/18 00:23:56;;;;;;;41.65;29.08;;;;;;;0.64;100.00;99392.09;2065924;28;20197;-67
2022/04/18 00:25:04;;;;;;;42.08;28.45;;;;;;;0.66;100.00;99389.25;2065263;28;20204;-68
2022/04/18 00:26:06;;;;;;;47.15;30.48;;;;;;;0.66;100.00;99394.50;2057689;28;20202;-68
2022/04/18 00:27:09;;;;;;;42.28;29.30;;;;;;;0.66;100.00;99389.25;2057366;28;20637;-68
2022/04/18 00:28:11;;;;;;;46.00;29.13;;;;;;;0.65;100.00;99385.03;2065326;28;20200;-67
2022/04/18 00:29:13;;;;;;;43.80;30.40;;;;;;;0.66;100.00;99397.94;2065787;28;20236;-67
2022/04/18 00:30:13;;;;;;;41.08;29.30;;;;;;;0.67;100.00;99390.84;2073352;28;20340;-68
2022/04/18 00:31:15;;;;;;;46.30;30.47;;;;;;;0.65;100.00;99387.66;2065259;28;20204;-67
2022/04/18 00:32:18;;;;;;;40.83;30.58;;;;;;;0.66;100.00;99389.25;2065534;28;20647;-68
2022/04/18 00:33:21;;;;;;;42.20;30.13;;;;;;;0.64;100.00;99384.22;2065844;28;20216;-67
2022/04/18 00:34:22;;;;;;;43.30;29.65;;;;;;;0.62;100.00;99388.91;2065200;28;20295;-67
2022/04/18 00:35:23;;;;;;;39.20;29.33;;;;;;;0.60;100.00;99382.25;2065324;28;20191;-67
2022/04/18 00:36:25;;;;;;;44.47;29.88;;;;;;;0.59;100.00;99380.66;2064783;28;20231;-68
2022/04/18 00:37:26;;;;;;;43.10;29.88;;;;;;;0.57;100.00;99380.88;2057218;28;20796;-67
2022/04/18 00:38:28;;;;;;;47.75;31.63;;;;;;;0.53;100.00;99375.28;2065283;28;20618;-67
2022/04/18 00:39:31;;;;;;;41.65;31.67;;;;;;;0.52;100.00;99383.38;2066071;28;20628;-68
2022/04/18 00:40:32;;;;;;;39.33;29.35;;;;;;;0.49;100.00;99382.00;2065096;28;20212;-69
2022/04/18 00:41:34;;;;;;;46.27;30.03;;;;;;;0.46;100.00;99371.94;2057129;28;20201;-67
2022/04/18 00:42:35;;;;;;;42.80;30.63;;;;;;;0.44;100.00;99367.97;2065259;28;20932;-67
2022/04/18 00:43:43;;;;;;;44.57;29.73;;;;;;;0.40;100.00;99372.81;2065815;28;20598;-68
2022/04/18 00:44:46;;;;;;;49.88;31.00;;;;;;;0.37;100.00;99373.28;2065968;28;20169;-67
2022/04/18 00:45:48;;;;;;;46.92;31.27;;;;;;;0.37;100.00;99364.59;2065801;28;20199;-67
2022/04/18 00:46:50;;;;;;;44.30;30.40;;;;;;;0.34;100.00;99363.22;2066022;28;20191;-67
2022/04/18 00:47:51;;;;;;;46.60;31.08;;;;;;;0.34;100.00;99360.59;2065812;28;20196;-68
2022/04/18 00:48:52;;;;;;;51.03;31.27;;;;;;;0.34;100.00;99365.84;2065808;28;20216;-67
2022/04/18 00:49:53;;;;;;;42.80;30.80;;;;;;;0.33;100.00;99358.97;2065804;28;20224;-67
2022/04/18 00:50:55;;;;;;;44.60;30.70;;;;;;;0.31;100.00;99361.03;2065517;28;20189;-67
2022/04/18 00:51:58;;;;;;;47.35;30.55;;;;;;;0.30;100.00;99362.06;2065990;28;20647;-67
2022/04/18 00:53:00;;;;;;;42.95;30.20;;;;;;;0.27;100.00;99363.31;2065173;28;20671;-67
2022/04/18 00:54:03;;;;;;;43.30;29.10;;;;;;;0.28;100.00;99364.13;2056841;28;20236;-66
2022/04/18 00:55:07;;;;;;;45.28;31.50;;;;;;;0.25;100.00;99362.72;2065229;28;20217;-67
2022/04/18 00:56:09;;;;;;;43.10;30.77;;;;;;;0.21;100.00;99358.94;2073189;28;20235;-67
2022/04/18 00:57:11;;;;;;;49.70;31.30;;;;;;;0.19;100.00;99358.38;2065118;28;20185;-68
2022/04/18 00:58:12;;;;;;;49.88;31.75;;;;;;;0.14;100.00;99354.78;2065411;28;20644;-67
2022/04/18 00:59:17;;;;;;;53.53;32.00;;;;;;;0.12;100.00;99355.03;2065137;28;20610;-67
2022/04/18 01:00:20;;;;;;;53.50;32.88;;;;;;;0.12;100.00;99354.22;2065283;28;20212;-67
2022/04/18 01:01:23;;;;;;;55.60;33.47;;;;;;;0.11;100.00;99350.81;2073106;28;20214;-67
2022/04/18 01:02:27;;;;;;;51.40;33.55;;;;;;;0.08;100.00;99350.41;2065256;28;20196;-67
2022/04/18 01:03:30;;;;;;;47.53;31.83;;;;;;;0.08;100.00;99355.66;2057128;28;20206;-67
2022/04/18 01:04:33;;;;;;;48.55;30.13;;;;;;;0.06;100.00;99358.50;2065183;28;20193;-67
2022/04/18 01:05:34;;;;;;;42.42;29.08;;;;;;;0.05;100.00;99350.88;2065081;28;20699;-68
2022/04/18 01:06:36;;;;;;;36.50;27.85;;;;;;;0.03;100.00;99347.69;2056792;28;20292;-68
2022/04/18 01:07:39;;;;;;;42.22;28.63;;;;;;;0.02;100.00;99352.13;2065362;28;20189;-68
2022/04/18 01:08:43;;;;;;;37.75;27.98;;;;;;;0.03;100.00;99350.28;2065841;28;20189;-67
2022/04/18 01:09:45;;;;;;;35.13;26.92;;;;;;;0.03;100.00;99356.34;2073138;28;20625;-67
2022/04/18 01:10:46;;;;;;;38.55;27.58;;;;;;;0.03;100.00;99351.09;2073229;28;20573;-67
2022/04/18 01:11:50;;;;;;;37.17;27.83;;;;;;;0.04;100.00;99344.81;2073170;28;20219;-67
2022/04/18 01:13:11;;;;;;;39.47;27.52;;;;;;;0.06;100.00;99353.28;2056979;28;20211;-68
2022/04/18 01:14:28;;;;;;;36.35;26.67;;;;;;;0.08;100.00;99339.94;2073176;28;20192;-68
2022/04/18 01:15:38;;;;;;;44.00;27.92;;;;;;;0.08;100.00;99343.34;2065121;28;20207;-68
2022/04/18 01:16:56;;;;;;;34.60;27.75;;;;;;;0.08;100.00;99345.97;2059213;28;20185;-67
2022/04/18 01:18:00;;;;;;;35.05;27.48;;;;;;;0.09;100.00;99333.66;2065483;28;20201;-67
2022/04/18 01:19:34;;;;;;;43.85;28.58;;;;;;;0.14;100.00;99339.06;2056952;28;20197;-67
2022/04/18 01:21:00;;;;;;;41.22;29.23;;;;;;;0.20;100.00;99333.72;2064427;28;20241;-69
2022/04/18 01:22:42;;;;;;;44.60;31.40;;;;;;;0.28;100.00;99343.13;2053705;28;20204;-67
2022/04/18 01:29:55;;;;;;;41.15;29.85;;;;;;;0.44;100.00;99328.59;2060940;28;20727;-67
2022/04/18 01:30:57;;;;;;;39.05;27.38;;;;;;;0.48;100.00;99335.78;2058762;28;20276;-67
2022/04/18 01:31:59;;;;;;;43.58;29.00;;;;;;;0.49;100.00;99339.19;2058507;28;20197;-67
2022/04/18 01:32:59;;;;;;;43.17;31.15;;;;;;;0.49;100.00;99342.63;2058504;28;20302;-68
2022/04/18 01:34:02;;;;;;;43.60;29.60;;;;;;;0.50;100.00;99341.59;2058532;28;20281;-67
2022/04/18 01:35:07;;;;;;;40.42;29.17;;;;;;;0.58;100.00;99361.47;2058698;28;20193;-67
2022/04/18 01:36:14;;;;;;;37.88;28.35;;;;;;;0.64;100.00;99362.44;2058480;28;20193;-68
2022/04/18 01:37:16;;;;;;;39.63;29.20;;;;;;;0.69;100.00;99357.28;2059286;28;20237;-68
2022/04/18 01:38:17;;;;;;;38.17;28.35;;;;;;;0.70;100.00;99343.97;2058600;28;20664;-67
2022/04/18 01:39:19;;;;;;;44.27;29.77;;;;;;;0.69;100.00;99326.56;2058432;28;20197;-68
2022/04/18 01:40:19;;;;;;;40.22;29.85;;;;;;;0.75;100.00;99330.13;2066438;28;20583;-67
2022/04/18 01:41:21;;;;;;;42.90;29.50;;;;;;;0.77;100.00;99328.09;2058353;28;20280;-67
2022/04/18 01:42:23;;;;;;;41.10;29.70;;;;;;;0.77;100.00;99333.34;2066560;28;20211;-67
2022/04/18 01:43:25;;;;;;;44.83;31.10;;;;;;;0.78;100.00;99345.44;2058429;28;20198;-67
2022/04/18 01:44:27;;;;;;;40.58;29.80;;;;;;;0.79;100.00;99354.94;2066584;28;20197;-67
2022/04/18 01:45:29;;;;;;;42.97;29.98;;;;;;;0.94;100.00;99347.41;2066390;28;20215;-67
2022/04/18 01:46:41;;;;;;;44.08;30.40;;;;;;;0.90;100.00;99330.53;2060221;28;20660;-67
2022/04/18 01:47:43;;;;;;;44.42;30.73;;;;;;;0.93;100.00;99332.69;2058588;28;20201;-67
2022/04/18 01:48:51;;;;;;;47.35;30.10;;;;;;;0.97;100.00;99333.84;2058514;28;20260;-67
2022/04/18 01:49:54;;;;;;;43.67;29.38;;;;;;;0.94;100.00;99331.66;2059451;28;20719;-68
2022/04/18 01:50:56;;;;;;;41.72;30.13;;;;;;;0.94;100.00;99321.16;2058003;28;20229;-68
2022/04/18 01:52:01;;;;;;;43.20;29.88;;;;;;;0.93;100.00;99322.19;2058649;28;20197;-68
2022/04/18 01:53:02;;;;;;;52.45;30.98;;;;;;;0.89;100.00;99326.28;2066456;28;20197;-69
2022/04/18 01:54:04;;;;;;;39.50;29.75;;;;;;;0.88;100.00;99322.06;2066356;28;20212;-68
2022/04/18 01:55:07;;;;;;;44.47;30.00;;;;;;;0.86;100.00;99324.09;2066606;28;20209;-70
2022/04/18 01:56:11;;;;;;;44.67;30.27;;;;;;;0.87;100.00;99325.72;2074268;28;20192;-69
2022/04/18 01:57:13;;;;;;;44.60;29.58;;;;;;;0.83;100.00;99317.47;2066356;28;20715;-68
2022/04/18 01:58:15;;;;;;;41.90;30.58;;;;;;;0.85;100.00;99314.63;2066350;28;20185;-69
2022/04/18 01:59:16;;;;;;;45.88;29.80;;;;;;;0.84;100.00;99311.19;2066327;28;20652;-68
2022/04/18 02:00:17;;;;;;;42.92;29.95;;;;;;;0.82;100.00;99309.84;2058331;28;20205;-68
2022/04/18 02:01:19;;;;;;;40.92;29.33;;;;;;;0.80;100.00;99304.00;2066279;28;20224;-68
2022/04/18 02:02:20;;;;;;;41.42;30.10;;;;;;;0.80;100.00;99304.00;2066259;28;20246;-68
2022/04/18 02:03:23;;;;;;;42.45;29.80;;;;;;;0.80;100.00;99304.00;2058359;28;20197;-68
2022/04/18 02:04:24;;;;;;;43.92;30.60;;;;;;;0.77;100.00;99307.88;2058078;28;20210;-69
2022/04/18 02:05:26;;;;;;;51.57;31.43;;;;;;;0.79;100.00;99312.94;2066401;28;20189;-68
2022/04/18 02:06:28;;;;;;;46.65;31.58;;;;;;;0.78;100.00;99308.66;2066606;28;20279;-68
2022/04/18 02:07:30;;;;;;;46.60;30.45;;;;;;;0.80;100.00;99311.91;2066198;28;20255;-68
2022/04/18 02:08:32;;;;;;;44.75;31.20;;;;;;;0.76;100.00;99294.97;2058240;28;20201;-69
2022/04/18 02:09:34;;;;;;;42.80;30.58;;;;;;;0.78;100.00;99306.03;2058331;28;20684;-68
2022/04/18 02:10:36;;;;;;;48.33;30.92;;;;;;;0.76;100.00;99301.03;2058240;28;20202;-68
2022/04/18 02:11:37;;;;;;;42.63;30.27;;;;;;;0.79;100.00;99300.59;2058308;28;20209;-68
2022/04/18 02:12:39;;;;;;;47.90;31.07;;;;;;;0.81;100.00;99303.78;2058222;28;20189;-68
2022/04/18 02:13:41;;;;;;;43.40;30.38;;;;;;;0.80;100.00;99296.13;2058361;28;20684;-69
2022/04/18 02:14:46;;;;;;;44.58;30.70;;;;;;;0.82;100.00;99300.13;2058543;28;20202;-68
2022/04/18 02:15:48;;;;;;;45.75;30.52;;;;;;;0.85;100.00;99298.88;2066494;28;20189;-69
2022/04/18 02:16:56;;;;;;;42.50;30.15;;;;;;;0.87;100.00;99303.88;2066111;28;20201;-68
2022/04/18 02:17:59;;;;;;;45.63;30.90;;;;;;;0.87;100.00;99298.63;2058790;28;20205;-68
2022/04/18 02:19:02;;;;;;;45.20;30.95;;;;;;;0.87;100.00;99299.47;2057961;28;20664;-69
2022/04/18 02:20:04;;;;;;;41.40;30.58;;;;;;;0.88;100.00;99287.94;2066260;28;20248;-69
2022/04/18 02:21:07;;;;;;;48.35;32.00;;;;;;;0.89;100.00;99289.53;2065462;28;20213;-68
2022/04/18 02:22:08;;;;;;;44.90;31.05;;;;;;;0.93;100.00;99288.03;2066521;28;20188;-68
2022/04/18 02:23:13;;;;;;;46.20;30.40;;;;;;;0.93;100.00;99285.41;2074340;28;20663;-68
2022/04/18 02:24:16;;;;;;;43.80;31.48;;;;;;;0.96;100.00;99287.59;2065734;28;20259;-68
2022/04/18 02:25:22;;;;;;;47.03;30.27;;;;;;;0.99;100.00;99287.13;2066196;28;20193;-68
2022/04/18 02:26:23;;;;;;;45.33;32.03;;;;;;;1.00;100.00;99282.66;2066229;28;20596;-69
2022/04/18 02:27:36;;;;;;;45.85;30.63;;;;;;;1.01;100.00;99285.06;2059723;28;20214;-69
2022/04/18 02:28:38;;;;;;;40.50;30.70;;;;;;;1.01;100.00;99284.28;2058130;28;20241;-69
2022/04/18 02:29:44;;;;;;;44.15;31.05;;;;;;;1.04;100.00;99286.44;2058695;28;20213;-68
2022/04/18 02:30:48;;;;;;;44.38;30.48;;;;;;;1.07;100.00;99286.78;2058073;28;20204;-69
2022/04/18 02:33:11;;;;;;;41.70;31.15;;;;;;;1.12;100.00;99278.22;2060693;28;20680;-68
2022/04/18 02:34:12;;;;;;;40.58;30.02;;;;;;;1.11;100.00;99277.41;2057980;28;20201;-68
2022/04/18 02:35:13;;;;;;;44.80;32.57;;;;;;;1.17;100.00;99280.16;2066441;28;20703;-68
2022/04/18 02:36:16;;;;;;;44.72;31.10;;;;;;;1.15;100.00;99272.50;2066261;28;20252;-68
2022/04/18 02:37:18;;;;;;;41.13;30.55;;;;;;;1.18;100.00;99279.13;2066044;28;20610;-68
2022/04/18 02:38:22;;;;;;;46.47;30.52;;;;;;;1.18;100.00;99277.31;2066299;28;20200;-70
2022/04/18 02:39:23;;;;;;;43.28;30.63;;;;;;;1.19;100.00;99273.63;2074063;28;20204;-68
2022/04/18 02:40:25;;;;;;;43.47;30.77;;;;;;;1.19;100.00;99278.09;2066061;28;20287;-68
2022/04/18 02:41:28;;;;;;;47.50;30.50;;;;;;;1.20;100.00;99280.50;2066216;28;20228;-68
2022/04/18 02:42:30;;;;;;;46.00;30.63;;;;;;;1.20;100.00;99274.44;2074058;28;20196;-69
2022/04/18 02:43:31;;;;;;;44.72;31.70;;;;;;;1.19;100.00;99272.84;2065999;28;20231;-68
2022/04/18 02:44:38;;;;;;;43.42;29.60;;;;;;;1.19;100.00;99273.63;2066923;28;20193;-68
2022/04/18 02:45:40;;;;;;;46.90;30.13;;;;;;;1.22;100.00;99277.66;2066038;28;20346;-68
2022/04/18 02:46:59;;;;;;;44.50;31.58;;;;;;;1.25;100.00;99280.63;2066347;28;20181;-68
2022/04/18 02:48:02;;;;;;;45.07;30.83;;;;;;;1.24;100.00;99275.59;2065915;28;20197;-68
2022/04/18 02:49:03;;;;;;;44.40;31.13;;;;;;;1.22;100.00;99272.41;2066178;28;20197;-68
2022/04/18 02:50:06;;;;;;;42.77;30.90;;;;;;;1.20;100.00;99269.19;2066037;28;20235;-68
2022/04/18 02:51:10;;;;;;;43.47;31.13;;;;;;;1.19;100.00;99275.47;2065897;28;20582;-68
2022/04/18 02:52:14;;;;;;;43.70;31.27;;;;;;;1.19;100.00;99276.28;2065956;28;20284;-68
2022/04/18 02:53:16;;;;;;;45.47;31.95;;;;;;;1.16;100.00;99263.59;2058416;28;20296;-68
2022/04/18 02:54:27;;;;;;;45.53;31.42;;;;;;;1.16;100.00;99270.69;2059322;28;20189;-68
2022/04/18 02:55:28;;;;;;;44.90;30.80;;;;;;;1.16;100.00;99274.13;2057893;28;20696;-68
2022/04/18 02:56:30;;;;;;;43.05;31.30;;;;;;;1.16;100.00;99274.13;2057911;28;20201;-68
2022/04/18 02:57:32;;;;;;;44.83;31.67;;;;;;;1.15;100.00;99269.09;2066016;28;20193;-68
2022/04/18 02:58:33;;;;;;;46.15;31.08;;;;;;;1.16;100.00;99270.69;2073963;28;20196;-68
2022/04/18 02:59:35;;;;;;;47.13;31.33;;;;;;;1.16;100.00;99268.84;2066055;28;20197;-68
2022/04/18 03:00:37;;;;;;;42.15;29.55;;;;;;;1.13;100.00;99267.50;2065978;28;20747;-69
2022/04/18 03:01:38;;;;;;;42.72;31.35;;;;;;;1.11;100.00;99261.66;2065757;28;20212;-68
2022/04/18 03:02:40;;;;;;;43.07;31.10;;;;;;;1.06;100.00;99264.19;2057892;28;20280;-68
2022/04/18 03:03:41;;;;;;;54.55;32.30;;;;;;;1.06;100.00;99261.56;2057867;28;20205;-68
2022/04/18 03:04:43;;;;;;;41.05;31.17;;;;;;;1.03;100.00;99255.94;2057506;28;20241;-68
2022/04/18 03:05:49;;;;;;;44.55;30.75;;;;;;;1.04;100.00;99263.63;2058366;28;20288;-69
2022/04/18 03:06:51;;;;;;;43.58;31.17;;;;;;;1.03;100.00;99258.56;2057742;28;20228;-69
2022/04/18 03:07:56;;;;;;;49.78;32.05;;;;;;;1.02;100.00;99260.41;2065890;28;20596;-68
2022/04/18 03:08:57;;;;;;;45.42;31.27;;;;;;;1.01;100.00;99264.06;2065942;28;20204;-68
2022/04/18 03:10:01;;;;;;;45.55;31.58;;;;;;;1.00;100.00;99257.19;2065857;28;20196;-69
2022/04/18 03:11:05;;;;;;;48.20;32.80;;;;;;;1.01;100.00;99258.00;2057984;28;20221;-68
2022/04/18 03:12:09;;;;;;;46.30;31.33;;;;;;;1.01;100.00;99261.44;2058523;28;20190;-70
2022/04/18 03:13:12;;;;;;;52.15;32.25;;;;;;;1.01;100.00;99266.69;2065897;28;20251;-69
2022/04/18 03:14:15;;;;;;;48.40;31.77;;;;;;;1.02;100.00;99256.97;2073571;28;20196;-68
2022/04/18 03:15:17;;;;;;;46.88;32.20;;;;;;;1.04;100.00;99257.53;2065713;28;20288;-68
2022/04/18 03:16:19;;;;;;;47.50;32.50;;;;;;;1.04;100.00;99260.97;2057714;28;20194;-68
2022/04/18 03:17:20;;;;;;;47.22;31.90;;;;;;;1.10;100.00;99264.50;2065854;28;20251;-69
2022/04/18 03:18:21;;;;;;;46.87;31.13;;;;;;;1.06;100.00;99261.56;2065710;28;20201;-69
2022/04/18 03:19:24;;;;;;;45.78;32.00;;;;;;;1.08;100.00;99264.75;2057792;28;20668;-68
2022/04/18 03:20:32;;;;;;;48.08;31.80;;;;;;;1.07;100.00;99263.16;2065788;28;20185;-68
2022/04/18 03:21:33;;;;;;;45.47;31.92;;;;;;;1.07;100.00;99265.78;2065026;28;20233;-68
2022/04/18 03:22:38;;;;;;;47.97;32.17;;;;;;;1.08;100.00;99261.31;2058155;28;20233;-68
2022/04/18 03:23:44;;;;;;;43.58;31.77;;;;;;;1.09;100.00;99262.91;2058377;28;20198;-67
2022/04/18 03:25:09;;;;;;;48.45;32.25;;;;;;;1.10;100.00;99259.25;2060706;28;20332;-68
2022/04/18 03:26:13;;;;;;;40.70;30.95;;;;;;;1.10;100.00;99262.69;2057792;28;20194;-67
2022/04/18 03:27:41;;;;;;;45.97;31.73;;;;;;;1.13;100.00;99264.88;2056614;28;20224;-67
2022/04/18 03:28:43;;;;;;;47.63;30.52;;;;;;;1.15;100.00;99269.88;2065545;28;20264;-67
2022/04/18 03:29:45;;;;;;;44.95;31.95;;;;;;;1.12;100.00;99257.97;2065764;28;20660;-67
2022/04/18 03:30:46;;;;;;;43.47;31.75;;;;;;;1.20;100.00;99269.19;2065657;28;20201;-68
2022/04/18 03:31:49;;;;;;;47.17;32.42;;;;;;;1.20;100.00;99264.72;2057588;28;20198;-68
2022/04/18 03:32:59;;;;;;;48.15;32.60;;;;;;;1.22;100.00;99270.56;2058628;28;20201;-68
2022/04/18 03:34:00;;;;;;;44.38;32.38;;;;;;;1.23;100.00;99271.38;2065922;28;20197;-67
2022/04/18 03:35:04;;;;;;;45.45;31.95;;;;;;;1.23;100.00;99268.75;2065614;28;20205;-67
2022/04/18 03:40:05;;;;;;;45.05;31.20;;;;;;;1.27;100.00;99243.59;2060048;28;20317;-67
2022/04/18 03:41:10;;;;;;;44.70;31.88;;;;;;;1.29;100.00;99238.91;2057946;28;20209;-67
2022/04/18 03:42:12;;;;;;;53.92;31.95;;;;;;;1.27;100.00;99236.50;2065713;28;20280;-67
2022/04/18 03:43:14;;;;;;;46.30;31.85;;;;;;;1.24;100.00;99241.44;2065499;28;20205;-67
2022/04/18 03:44:15;;;;;;;47.78;33.08;;;;;;;1.28;100.00;99239.94;2065809;28;20235;-68
2022/04/18 03:45:17;;;;;;;49.93;33.47;;;;;;;1.24;100.00;99239.59;2065410;28;20284;-67
2022/04/18 03:46:18;;;;;;;50.72;32.63;;;;;;;1.25;100.00;99245.66;2057189;28;20212;-68
2022/04/18 03:47:23;;;;;;;46.53;32.80;;;;;;;1.22;100.00;99239.03;2065772;28;20191;-67
2022/04/18 03:48:25;;;;;;;48.03;32.92;;;;;;;1.25;100.00;99246.44;2065638;28;20193;-67
2022/04/18 03:49:28;;;;;;;44.17;31.42;;;;;;;1.27;100.00;99244.38;2057411;28;20202;-68
2022/04/18 03:50:31;;;;;;;49.25;32.55;;;;;;;1.27;100.00;99243.59;2057701;28;20668;-68
2022/04/18 03:51:32;;;;;;;48.60;34.00;;;;;;;1.28;100.00;99245.19;2057035;28;20703;-67
2022/04/18 03:52:34;;;;;;;43.77;30.77;;;;;;;1.29;100.00;99241.53;2057419;28;20562;-67
2022/04/18 03:53:37;;;;;;;49.08;33.15;;;;;;;1.32;100.00;99241.88;2057782;28;20608;-67
2022/04/18 03:54:42;;;;;;;49.95;34.38;;;;;;;1.26;100.00;99240.16;2057407;28;20208;-68
2022/04/18 03:55:47;;;;;;;50.33;33.40;;;;;;;1.26;100.00;99242.00;2058297;28;20208;-67
2022/04/18 03:57:06;;;;;;;48.40;32.45;;;;;;;1.24;100.00;99242.22;2059396;28;20193;-67
2022/04/18 03:58:21;;;;;;;46.92;32.88;;;;;;;1.22;100.00;99231.16;2059792;28;20240;-69
2022/04/18 03:59:22;;;;;;;54.75;35.15;;;;;;;1.22;100.00;99240.88;2057405;28;20201;-67
2022/04/18 04:00:42;;;;;;;51.70;34.00;;;;;;;1.20;100.00;99242.91;2067369;28;20276;-67
2022/04/18 04:01:44;;;;;;;52.72;33.85;;;;;;;1.18;100.00;99234.47;2065300;28;20216;-67
2022/04/18 04:02:47;;;;;;;51.60;34.20;;;;;;;1.17;100.00;99233.66;2065496;28;20601;-67
2022/04/18 04:03:54;;;;;;;48.83;33.05;;;;;;;1.15;100.00;99227.84;2065501;28;20699;-68
2022/04/18 04:04:57;;;;;;;52.03;34.15;;;;;;;1.16;100.00;99231.28;2057629;28;20217;-67
2022/04/18 04:05:58;;;;;;;48.38;33.22;;;;;;;1.16;100.00;99233.91;2056907;28;20672;-67
2022/04/18 04:07:00;;;;;;;49.63;33.60;;;;;;;1.15;100.00;99240.19;2065410;28;20600;-67
2022/04/18 04:08:01;;;;;;;47.58;33.05;;;;;;;1.17;100.00;99240.75;2065320;28;20255;-67
2022/04/18 04:09:09;;;;;;;51.60;34.80;;;;;;;1.17;100.00;99235.50;2057727;28;20664;-67
2022/04/18 04:10:10;;;;;;;48.40;34.13;;;;;;;1.18;100.00;99234.47;2057686;28;20198;-68
2022/04/18 04:11:14;;;;;;;56.85;34.30;;;;;;;1.20;100.00;99237.66;2057300;28;20208;-67
2022/04/18 04:12:23;;;;;;;55.05;35.47;;;;;;;1.22;100.00;99240.88;2058281;28;20198;-67
2022/04/18 04:13:37;;;;;;;54.53;34.42;;;;;;;1.26;100.00;99234.91;2059541;28;20189;-67
2022/04/18 04:14:50;;;;;;;54.13;33.25;;;;;;;1.27;100.00;99233.06;2058537;28;20194;-67
2022/04/18 04:15:52;;;;;;;49.35;32.75;;;;;;;1.29;100.00;99236.28;2065736;28;20676;-68
2022/04/18 04:17:01;;;;;;;55.13;33.80;;;;;;;1.30;100.00;99235.22;2065236;28;20769;-67
2022/04/18 04:18:04;;;;;;;50.50;33.58;;;;;;;1.33;100.00;99237.41;2057083;28;20201;-67
2022/04/18 04:19:06;;;;;;;55.65;34.53;;;;;;;1.34;100.00;99233.75;2065315;28;20224;-67
2022/04/18 04:20:08;;;;;;;50.17;34.28;;;;;;;1.37;100.00;99235.91;2065235;28;20288;-67
2022/04/18 04:21:10;;;;;;;51.97;34.45;;;;;;;1.37;100.00;99228.03;2057027;28;20201;-68
2022/04/18 04:22:12;;;;;;;48.37;33.70;;;;;;;1.38;100.00;99227.00;2057173;28;20210;-67
2022/04/18 04:23:17;;;;;;;49.25;34.17;;;;;;;1.40;100.00;99232.84;2057937;28;20193;-67
2022/04/18 04:24:39;;;;;;;52.70;34.38;;;;;;;1.40;100.00;99227.59;2065022;28;20224;-67
2022/04/18 04:25:41;;;;;;;49.45;34.50;;;;;;;1.41;100.00;99223.91;2065291;28;20205;-67
2022/04/18 04:26:48;;;;;;;49.00;33.92;;;;;;;1.44;100.00;99227.91;2057900;28;20670;-68
2022/04/18 04:27:54;;;;;;;49.30;33.17;;;;;;;1.45;100.00;99238.19;2065899;28;20231;-67
2022/04/18 04:28:57;;;;;;;45.63;32.33;;;;;;;1.44;100.00;99233.97;2065157;28;20232;-67
2022/04/18 04:30:32;;;;;;;46.55;34.13;;;;;;;1.44;100.00;99233.97;2069564;28;20290;-67
2022/04/18 04:31:40;;;;;;;48.63;33.35;;;;;;;1.45;100.00;99230.28;2065192;28;20678;-67
2022/04/18 04:32:42;;;;;;;51.15;35.15;;;;;;;1.44;100.00;99225.28;2056812;28;20291;-67
2022/04/18 04:33:44;;;;;;;46.63;33.88;;;;;;;1.42;100.00;99220.25;2057400;28;20591;-68
2022/04/18 04:34:45;;;;;;;54.28;34.67;;;;;;;1.40;100.00;99223.13;2065271;28;20205;-67
2022/04/18 04:36:01;;;;;;;47.03;33.67;;;;;;;1.39;100.00;99234.66;2064651;28;20196;-68
2022/04/18 04:37:02;;;;;;;49.65;33.97;;;;;;;1.38;100.00;99229.63;2065313;28;20280;-68
2022/04/18 04:38:07;;;;;;;48.80;33.23;;;;;;;1.39;100.00;99232.03;2065194;28;20193;-67
2022/04/18 04:39:37;;;;;;;50.13;33.97;;;;;;;1.37;100.00;99231.44;2063463;28;20201;-69
2022/04/18 04:40:39;;;;;;;54.38;35.53;;;;;;;1.38;100.00;99232.25;2065147;28;20212;-68
2022/04/18 04:41:43;;;;;;;46.28;33.92;;;;;;;1.36;100.00;99242.19;2057485;28;20194;-68
2022/04/18 04:42:44;;;;;;;51.55;34.05;;;;;;;1.35;100.00;99233.53;2057226;28;20197;-68
2022/04/18 04:43:47;;;;;;;54.37;33.03;;;;;;;1.36;100.00;99234.31;2057246;28;20707;-69
2022/04/18 04:44:52;;;;;;;48.95;33.28;;;;;;;1.36;100.00;99236.94;2057879;28;20202;-68
2022/04/18 04:46:00;;;;;;;47.80;34.22;;;;;;;1.34;100.00;99237.19;2057616;28;20256;-68
2022/04/18 04:47:04;;;;;;;51.75;32.22;;;;;;;1.33;100.00;99235.59;2057918;28;20645;-68
2022/04/18 04:48:07;;;;;;;49.65;31.55;;;;;;;1.32;100.00;99235.81;2057361;28;20221;-68
2022/04/18 04:49:14;;;;;;;50.67;33.08;;;;;;;1.31;100.00;99231.59;2057954;28;20296;-68
2022/04/18 04:50:25;;;;;;;52.85;33.75;;;;;;;1.29;100.00;99234.44;2065152;28;20255;-68
2022/04/18 04:51:32;;;;;;;50.63;33.10;;;;;;;1.30;100.00;99232.59;2057522;28;20240;-68
2022/04/18 04:52:34;;;;;;;54.13;33.53;;;;;;;1.31;100.00;99244.75;2057219;28;20205;-68
2022/04/18 04:53:37;;;;;;;48.47;33.85;;;;;;;1.29;100.00;99241.53;2057140;28;20197;-69
2022/04/18 04:54:39;;;;;;;54.65;33.30;;;;;;;1.33;100.00;99245.31;2057627;28;20209;-68
2022/04/18 04:55:44;;;;;;;48.45;32.67;;;;;;;1.33;100.00;99246.09;2057382;28;20210;-68
2022/04/18 04:56:44;;;;;;;49.00;34.38;;;;;;;1.35;100.00;99249.28;2065094;28;20726;-68
2022/04/18 04:57:46;;;;;;;48.63;34.00;;;;;;;1.39;100.00;99247.81;2065421;28;20628;-68
2022/04/18 04:59:12;;;;;;;47.03;34.00;;;;;;;1.39;100.00;99247.81;2066898;28;20208;-68
2022/04/18 05:00:15;;;;;;;47.78;34.53;;;;;;;1.44;100.00;99259.44;2066892;28;20695;-68
2022/04/18 05:01:35;;;;;;;49.47;33.05;;;;;;;1.52;100.00;99254.63;2067077;28;20585;-68
2022/04/18 05:02:37;;;;;;;51.50;35.35;;;;;;;1.53;100.00;99250.97;2067584;28;20323;-68
2022/04/18 05:03:39;;;;;;;52.00;34.53;;;;;;;1.56;100.00;99247.06;2066695;28;20208;-68
2022/04/18 05:04:44;;;;;;;53.72;33.97;;;;;;;1.60;100.00;99246.38;2059054;28;20201;-68
2022/04/18 05:05:47;;;;;;;52.67;34.20;;;;;;;1.64;100.00;99244.88;2058841;28;20197;-68
2022/04/18 05:07:02;;;;;;;50.38;34.22;;;;;;;1.71;100.00;99242.13;2066321;28;20576;-68